createdAt,value
2023-04-03T00:00:50.766Z,100.00
2023-04-03T00:03:18.888Z,100.00
2023-04-03T00:05:47.099Z,100.00
2023-04-03T00:08:13.656Z,100.00
2023-04-03T00:10:40.214Z,100.00
2023-04-03T00:13:07.915Z,100.00
2023-04-03T00:15:35.722Z,100.00
2023-04-03T00:18:02.733Z,100.00
2023-04-03T00:20:29.300Z,100.00
2023-04-03T00:22:56.031Z,100.00
2023-04-03T00:25:22.887Z,100.00
2023-04-03T00:27:49.393Z,100.00
2023-04-03T00:30:18.259Z,100.00
2023-04-03T00:32:45.049Z,100.00
2023-04-03T00:35:11.986Z,100.00
2023-04-03T00:37:38.448Z,100.00
2023-04-03T00:40:05.680Z,100.00
2023-04-03T00:42:32.238Z,100.00
2023-04-03T00:44:58.834Z,100.00
2023-04-03T00:47:26.344Z,100.00
2023-04-03T00:49:53.369Z,100.00
2023-04-03T00:52:24.234Z,100.00
2023-04-03T00:54:55.492Z,100.00
2023-04-03T00:57:23.382Z,100.00
2023-04-03T00:59:52.877Z,100.00
2023-04-03T01:02:19.749Z,100.00
2023-04-03T01:04:48.137Z,100.00
2023-04-03T01:07:32.274Z,100.00
2023-04-03T01:10:02.745Z,100.00
2023-04-03T01:12:38.316Z,100.00
2023-04-03T01:15:09.318Z,100.00
2023-04-03T01:17:40.146Z,100.00
2023-04-03T01:20:12.742Z,100.00
2023-04-03T01:22:59.854Z,100.00
2023-04-03T01:25:27.371Z,100.00
2023-04-03T01:27:54.302Z,100.00
2023-04-03T01:30:24.731Z,100.00
2023-04-03T01:32:51.369Z,100.00
2023-04-03T01:35:17.933Z,100.00
2023-04-03T01:37:44.394Z,100.00
2023-04-03T01:40:11.173Z,100.00
2023-04-03T01:42:37.644Z,100.00
2023-04-03T01:45:04.472Z,100.00
2023-04-03T01:47:31.009Z,100.00
2023-04-03T01:49:57.484Z,100.00
2023-04-03T01:52:24.022Z,100.00
2023-04-03T01:54:51.419Z,100.00
2023-04-03T01:57:17.904Z,100.00
2023-04-03T01:59:44.697Z,100.00
2023-04-03T02:02:13.295Z,100.00
2023-04-03T02:04:39.848Z,100.00
2023-04-03T02:07:06.677Z,100.00
2023-04-03T02:09:33.102Z,100.00
2023-04-03T02:11:59.583Z,100.00
2023-04-03T02:14:28.347Z,100.00
2023-04-03T02:16:55.263Z,100.00
2023-04-03T02:19:21.773Z,100.00
2023-04-03T02:21:48.231Z,100.00
2023-04-03T02:24:14.645Z,100.00
2023-04-03T02:26:41.070Z,100.00
2023-04-03T02:29:07.505Z,100.00
2023-04-03T02:31:34.061Z,100.00
2023-04-03T02:34:00.489Z,100.00
2023-04-03T02:36:26.985Z,100.00
2023-04-03T02:38:53.703Z,100.00
2023-04-03T02:41:20.102Z,100.00
2023-04-03T02:43:46.536Z,100.00
2023-04-03T02:46:15.149Z,100.00
2023-04-03T02:48:41.875Z,100.00
2023-04-03T02:51:08.323Z,100.00
2023-04-03T02:53:34.908Z,100.00
2023-04-03T02:56:01.456Z,100.00
2023-04-03T02:58:28.007Z,100.00
2023-04-03T03:00:54.936Z,100.00
2023-04-03T03:03:21.373Z,100.00
2023-04-03T03:05:49.108Z,100.00
2023-04-03T03:08:15.681Z,100.00
2023-04-03T03:10:42.078Z,100.00
2023-04-03T03:13:08.686Z,100.00
2023-04-03T03:15:35.367Z,100.00
2023-04-03T03:18:01.965Z,100.00
2023-04-03T03:20:28.495Z,100.00
2023-04-03T03:22:54.925Z,100.00
2023-04-03T03:25:21.432Z,100.00
2023-04-03T03:27:47.945Z,100.00
2023-04-03T03:30:14.578Z,100.00
2023-04-03T03:32:41.236Z,100.00
2023-04-03T03:35:08.117Z,100.00
2023-04-03T03:37:34.628Z,100.00
2023-04-03T03:40:01.077Z,100.00
2023-04-03T03:42:27.653Z,100.00
2023-04-03T03:44:54.125Z,100.00
2023-04-03T03:47:21.145Z,100.00
2023-04-03T03:49:47.610Z,100.00
2023-04-03T03:52:14.313Z,100.00
2023-04-03T03:54:40.917Z,100.00
2023-04-03T03:57:07.507Z,100.00
2023-04-03T03:59:34.018Z,100.00
2023-04-03T04:02:00.633Z,100.00
2023-04-03T04:04:27.119Z,100.00
2023-04-03T04:06:53.600Z,100.00
2023-04-03T04:09:20.490Z,100.00
2023-04-03T04:11:46.966Z,100.00
2023-04-03T04:14:14.387Z,100.00
2023-04-03T04:16:40.987Z,100.00
2023-04-03T04:19:08.891Z,100.00
2023-04-03T04:21:35.637Z,100.00
2023-04-03T04:24:02.144Z,100.00
2023-04-03T04:26:28.640Z,100.00
2023-04-03T04:28:55.121Z,100.00
2023-04-03T04:31:21.743Z,100.00
2023-04-03T04:33:48.246Z,100.00
2023-04-03T04:36:15.814Z,100.00
2023-04-03T04:38:43.169Z,100.00
2023-04-03T04:41:09.641Z,100.00
2023-04-03T04:43:36.513Z,100.00
2023-04-03T04:46:13.740Z,100.00
2023-04-03T04:48:41.349Z,100.00
2023-04-03T04:51:08.100Z,100.00
2023-04-03T04:53:34.821Z,100.00
2023-04-03T04:56:01.341Z,100.00
2023-04-03T04:58:27.928Z,100.00
2023-04-03T05:01:09.382Z,100.00
2023-04-03T05:03:36.427Z,100.00
2023-04-03T05:06:03.549Z,100.00
2023-04-03T05:08:30.640Z,100.00
2023-04-03T05:10:57.170Z,100.00
2023-04-03T05:13:23.713Z,100.00
2023-04-03T05:15:50.328Z,100.00
2023-04-03T05:18:16.824Z,100.00
2023-04-03T05:20:44.352Z,100.00
2023-04-03T05:23:12.290Z,100.00
2023-04-03T05:25:39.598Z,100.00
2023-04-03T05:28:06.268Z,100.00
2023-04-03T05:30:32.716Z,100.00
2023-04-03T05:33:00.354Z,100.00
2023-04-03T05:35:26.841Z,100.00
2023-04-03T05:51:27.025Z,100.00
2023-04-03T05:54:01.141Z,100.00
2023-04-03T06:15:56.640Z,100.00
2023-04-03T06:21:08.998Z,100.00
2023-04-03T06:23:35.753Z,100.00
2023-04-03T06:26:02.632Z,100.00
2023-04-03T06:28:29.118Z,100.00
2023-04-03T06:30:55.634Z,100.00
2023-04-03T06:33:22.113Z,100.00
2023-04-03T06:35:48.551Z,100.00
2023-04-03T06:38:15.014Z,100.00
2023-04-03T06:40:41.455Z,100.00
2023-04-03T06:43:08.533Z,100.00
2023-04-03T06:45:35.132Z,98.74
2023-04-03T06:48:02.358Z,98.54
2023-04-03T06:50:29.203Z,95.06
2023-04-03T06:52:55.674Z,87.65
2023-04-03T06:55:22.587Z,83.93
2023-04-03T06:57:49.071Z,83.85
2023-04-03T07:00:17.192Z,84.40
2023-04-03T07:02:43.730Z,82.89
2023-04-03T07:05:10.552Z,82.44
2023-04-03T07:07:37.065Z,80.82
2023-04-03T07:10:03.841Z,80.75
2023-04-03T07:12:30.651Z,80.23
2023-04-03T07:14:57.241Z,79.22
2023-04-03T07:17:23.787Z,78.71
2023-04-03T07:19:50.501Z,74.54
2023-04-03T07:22:17.187Z,70.99
2023-04-03T07:24:43.605Z,70.72
2023-04-03T07:27:10.938Z,68.07
2023-04-03T07:29:37.528Z,66.97
2023-04-03T07:32:04.638Z,62.16
2023-04-03T07:34:31.654Z,63.62
2023-04-03T07:36:58.812Z,64.90
2023-04-03T07:39:25.843Z,63.27
2023-04-03T07:41:52.545Z,63.20
2023-04-03T07:44:19.115Z,62.02
2023-04-03T07:46:45.958Z,62.26
2023-04-03T07:49:12.456Z,61.41
2023-04-03T07:51:38.919Z,63.56
2023-04-03T07:54:05.394Z,64.29
2023-04-03T07:56:33.002Z,65.89
2023-04-03T07:58:59.476Z,66.58
2023-04-03T08:01:26.029Z,67.93
2023-04-03T08:03:52.758Z,68.41
2023-04-03T08:06:26.149Z,69.96
2023-04-03T08:09:00.136Z,69.56
2023-04-03T08:11:27.436Z,69.19
2023-04-03T08:13:54.213Z,68.92
2023-04-03T08:16:23.720Z,62.85
2023-04-03T08:18:50.273Z,63.38
2023-04-03T08:21:17.984Z,63.53
2023-04-03T08:23:44.437Z,64.15
2023-04-03T08:26:16.741Z,66.65
2023-04-03T08:28:43.242Z,65.26
2023-04-03T08:31:13.012Z,67.04
2023-04-03T08:33:40.268Z,66.02
2023-04-03T08:36:08.972Z,66.28
2023-04-03T08:38:38.207Z,67.47
2023-04-03T08:41:14.373Z,67.34
2023-04-03T08:44:14.072Z,67.28
2023-04-03T08:46:55.684Z,67.53
2023-04-03T08:49:33.597Z,65.12
2023-04-03T08:52:04.798Z,65.77
2023-04-03T08:54:35.481Z,67.02
2023-04-03T08:57:06.320Z,66.68
2023-04-03T08:59:38.169Z,65.58
2023-04-03T09:02:36.448Z,64.89
2023-04-03T09:05:12.240Z,65.57
2023-04-03T09:07:46.817Z,67.42
2023-04-03T09:10:16.910Z,68.16
2023-04-03T09:12:54.362Z,67.98
2023-04-03T09:15:37.717Z,65.34
2023-04-03T09:18:11.537Z,59.43
2023-04-03T09:20:52.841Z,58.01
2023-04-03T09:23:25.890Z,56.30
2023-04-03T09:25:57.718Z,54.14
2023-04-03T09:28:24.263Z,54.09
2023-04-03T09:30:50.777Z,55.01
2023-04-03T09:33:18.579Z,54.93
2023-04-03T09:35:48.664Z,54.77
2023-04-03T09:38:19.185Z,49.50
2023-04-03T09:40:52.235Z,48.92
2023-04-03T09:43:18.955Z,50.08
2023-04-03T09:45:46.996Z,48.42
2023-04-03T09:48:16.254Z,50.61
2023-04-03T09:50:56.587Z,51.31
2023-04-03T09:53:42.010Z,51.09
2023-04-03T09:56:14.653Z,50.68
2023-04-03T09:58:50.318Z,52.19
2023-04-03T10:01:34.529Z,52.88
2023-04-03T10:04:11.813Z,53.44
2023-04-03T10:06:44.304Z,54.04
2023-04-03T10:09:27.131Z,54.88
2023-04-03T10:12:02.254Z,54.77
2023-04-03T10:14:33.303Z,52.42
2023-04-03T10:17:37.472Z,52.17
2023-04-03T10:20:27.301Z,51.02
2023-04-03T10:23:05.392Z,48.27
2023-04-03T10:25:48.782Z,49.58
2023-04-03T10:28:47.010Z,47.49
2023-04-03T10:31:22.012Z,47.21
2023-04-03T10:34:06.973Z,46.58
2023-04-03T10:37:03.505Z,46.95
2023-04-03T10:39:36.024Z,47.00
2023-04-03T10:42:17.338Z,46.74
2023-04-03T10:44:52.341Z,48.96
2023-04-03T10:47:47.936Z,50.31
2023-04-03T10:50:39.978Z,50.60
2023-04-03T10:53:18.665Z,51.09
2023-04-03T10:55:52.867Z,51.18
2023-04-03T10:58:30.663Z,50.98
2023-04-03T11:01:07.385Z,50.79
2023-04-03T11:03:37.931Z,50.18
2023-04-03T11:06:10.827Z,49.71
2023-04-03T11:08:40.725Z,49.52
2023-04-03T11:11:12.745Z,49.30
2023-04-03T11:13:53.804Z,49.88
2023-04-03T11:16:35.679Z,50.12
2023-04-03T11:19:24.437Z,50.61
2023-04-03T11:22:03.195Z,50.03
2023-04-03T11:24:33.931Z,51.96
2023-04-03T11:27:04.670Z,51.24
2023-04-03T11:29:38.912Z,50.71
2023-04-03T11:32:44.243Z,51.53
2023-04-03T11:35:11.822Z,51.33
2023-04-03T11:37:47.197Z,50.82
2023-04-03T11:40:16.488Z,50.60
2023-04-03T11:42:46.994Z,51.50
2023-04-03T11:45:22.855Z,51.92
2023-04-03T11:47:52.539Z,52.34
2023-04-03T11:50:37.675Z,52.17
2023-04-03T11:53:07.369Z,51.65
2023-04-03T11:55:33.951Z,52.31
2023-04-03T11:58:00.575Z,52.97
2023-04-03T12:00:56.153Z,53.11
2023-04-03T12:03:28.774Z,52.10
2023-04-03T12:06:05.586Z,52.72
2023-04-03T12:08:35.049Z,52.78
2023-04-03T12:11:10.882Z,52.58
2023-04-03T12:13:43.350Z,53.40
2023-04-03T12:16:23.555Z,53.87
2023-04-03T12:18:50.104Z,54.61
2023-04-03T12:21:22.353Z,54.03
2023-04-03T12:24:07.872Z,55.47
2023-04-03T12:26:48.794Z,55.24
2023-04-03T12:29:22.794Z,55.74
2023-04-03T12:32:04.306Z,55.41
2023-04-03T12:34:53.695Z,55.54
2023-04-03T12:37:44.713Z,55.45
2023-04-03T12:40:30.137Z,55.53
2023-04-03T12:43:07.149Z,56.06
2023-04-03T12:46:13.121Z,56.90
2023-04-03T12:48:57.362Z,55.97
2023-04-03T12:51:30.592Z,56.02
2023-04-03T12:54:14.059Z,56.22
2023-04-03T12:56:40.875Z,55.01
2023-04-03T12:59:22.617Z,52.85
2023-04-03T13:01:56.744Z,52.64
2023-04-03T13:04:23.614Z,53.08
2023-04-03T13:06:50.825Z,53.24
2023-04-03T13:09:28.906Z,52.62
2023-04-03T13:12:10.055Z,51.62
2023-04-03T13:14:37.463Z,51.90
2023-04-03T13:17:13.502Z,52.95
2023-04-03T13:19:40.914Z,53.58
2023-04-03T13:22:20.958Z,53.52
2023-04-03T13:24:50.753Z,53.98
2023-04-03T13:27:18.632Z,53.79
2023-04-03T13:29:52.312Z,54.44
2023-04-03T13:32:23.947Z,53.62
2023-04-03T13:34:50.373Z,54.42
2023-04-03T13:37:26.012Z,53.87
2023-04-03T13:40:07.503Z,55.23
2023-04-03T13:42:37.562Z,55.42
2023-04-03T13:45:28.782Z,56.47
2023-04-03T13:51:18.363Z,55.68
2023-04-03T13:53:51.707Z,55.89
2023-04-03T13:56:33.847Z,55.48
2023-04-03T13:59:35.088Z,55.79
2023-04-03T14:02:04.716Z,57.52
2023-04-03T14:04:54.231Z,56.71
2023-04-03T14:07:22.216Z,55.88
2023-04-03T14:09:49.656Z,55.37
2023-04-03T14:12:31.781Z,55.87
2023-04-03T14:15:03.099Z,55.33
2023-04-03T14:17:29.926Z,57.01
2023-04-03T14:19:58.325Z,57.07
2023-04-03T14:22:27.474Z,56.75
2023-04-03T14:24:53.981Z,57.27
2023-04-03T14:27:43.099Z,55.36
2023-04-03T14:30:15.631Z,54.69
2023-04-03T14:32:42.526Z,55.13
2023-04-03T14:35:09.075Z,55.04
2023-04-03T14:37:36.406Z,53.41
2023-04-03T14:40:06.311Z,54.92
2023-04-03T14:42:35.838Z,54.11
2023-04-03T14:45:04.940Z,54.37
2023-04-03T14:47:32.616Z,55.86
2023-04-03T14:50:01.879Z,55.41
2023-04-03T14:52:32.852Z,55.42
2023-04-03T14:55:01.316Z,55.69
2023-04-03T14:57:29.592Z,54.85
2023-04-03T14:59:56.740Z,55.68
2023-04-03T15:02:26.838Z,56.04
2023-04-03T15:04:54.702Z,55.99
2023-04-03T15:07:21.537Z,56.99
2023-04-03T15:09:48.185Z,57.63
2023-04-03T15:14:52.429Z,58.75
2023-04-03T15:17:23.516Z,60.48
2023-04-03T15:19:50.136Z,61.49
2023-04-03T15:22:19.184Z,61.67
2023-04-03T15:24:46.653Z,62.07
2023-04-03T15:27:14.414Z,63.50
2023-04-03T15:29:42.755Z,63.70
2023-04-03T15:32:10.084Z,64.78
2023-04-03T15:34:37.871Z,65.26
2023-04-03T15:37:04.605Z,65.88
2023-04-03T15:39:31.169Z,67.59
2023-04-03T15:42:00.879Z,66.82
2023-04-03T15:44:27.328Z,67.66
2023-04-03T15:46:53.904Z,69.23
2023-04-03T15:49:21.777Z,70.72
2023-04-03T15:51:48.662Z,70.34
2023-04-03T15:54:16.345Z,69.51
2023-04-03T15:56:42.952Z,68.44
2023-04-03T15:59:09.772Z,67.55
2023-04-03T16:01:37.682Z,67.25
2023-04-03T16:04:05.438Z,66.83
2023-04-03T16:06:32.774Z,67.09
2023-04-03T16:08:59.289Z,67.38
2023-04-03T16:11:27.125Z,67.78
2023-04-03T16:13:54.903Z,66.93
2023-04-03T16:16:22.339Z,67.41
2023-04-03T16:18:49.241Z,68.00
2023-04-03T16:21:17.524Z,67.52
2023-04-03T16:23:45.240Z,69.09
2023-04-03T16:26:11.771Z,68.61
2023-04-03T16:28:38.288Z,69.13
2023-04-03T16:31:06.782Z,68.49
2023-04-03T16:33:33.773Z,69.20
2023-04-03T16:36:00.657Z,68.63
2023-04-03T16:38:27.297Z,68.40
2023-04-03T16:40:57.502Z,68.65
2023-04-03T16:43:24.103Z,69.10
2023-04-03T16:45:50.536Z,70.73
2023-04-03T16:48:17.149Z,69.63
2023-04-03T16:50:48.904Z,70.12
2023-04-03T16:53:16.343Z,68.04
2023-04-03T16:55:42.830Z,68.26
2023-04-03T16:58:10.540Z,69.46
2023-04-03T17:00:37.554Z,72.22
2023-04-03T17:03:04.659Z,73.67
2023-04-03T17:05:31.303Z,73.72
2023-04-03T17:07:57.834Z,75.55
2023-04-03T17:10:24.897Z,72.36
2023-04-03T17:12:51.337Z,71.91
2023-04-03T17:15:17.981Z,73.48
2023-04-03T17:17:44.515Z,73.60
2023-04-03T17:20:11.477Z,75.49
2023-04-03T17:22:37.917Z,75.69
2023-04-03T17:25:05.412Z,77.52
2023-04-03T17:27:31.941Z,78.29
2023-04-03T17:29:58.590Z,80.29
2023-04-03T17:32:26.459Z,82.61
2023-04-03T17:34:54.361Z,84.10
2023-04-03T17:37:20.887Z,88.16
2023-04-03T17:39:47.403Z,88.72
2023-04-03T17:42:13.874Z,89.07
2023-04-03T17:44:40.504Z,88.18
2023-04-03T17:47:07.216Z,91.10
2023-04-03T17:49:33.797Z,89.34
2023-04-03T17:52:00.416Z,87.82
2023-04-03T17:54:26.946Z,88.73
2023-04-03T17:56:53.550Z,90.40
2023-04-03T17:59:20.083Z,93.35
2023-04-03T18:01:47.588Z,93.86
2023-04-03T18:04:14.684Z,93.88
2023-04-03T18:06:49.769Z,97.14
2023-04-03T18:09:28.864Z,100.00
2023-04-03T18:11:56.412Z,97.48
2023-04-03T18:14:25.568Z,99.41
2023-04-03T18:16:52.153Z,97.21
2023-04-03T18:19:23.451Z,97.57
2023-04-03T18:21:57.156Z,96.09
2023-04-03T18:24:26.121Z,100.00
2023-04-03T18:27:00.252Z,95.51
2023-04-03T18:29:29.304Z,98.13
2023-04-03T18:31:56.941Z,98.47
2023-04-03T18:34:23.487Z,96.63
2023-04-03T18:36:50.237Z,95.09
2023-04-03T18:39:16.966Z,93.65
2023-04-03T18:41:43.709Z,95.23
2023-04-03T18:44:14.525Z,100.00
2023-04-03T18:46:41.139Z,100.00
2023-04-03T18:49:09.199Z,100.00
2023-04-03T18:51:35.908Z,100.00
2023-04-03T18:54:03.484Z,100.00
2023-04-03T18:56:30.816Z,100.00
2023-04-03T18:58:57.568Z,100.00
2023-04-03T19:01:24.128Z,100.00
2023-04-03T19:03:50.771Z,100.00
2023-04-03T19:06:17.388Z,100.00
2023-04-03T19:08:43.953Z,100.00
2023-04-03T19:11:11.156Z,100.00
2023-04-03T19:13:46.517Z,100.00
2023-04-03T19:16:24.384Z,100.00
2023-04-03T19:18:50.963Z,100.00
2023-04-03T19:21:18.266Z,100.00
2023-04-03T19:23:45.053Z,100.00
2023-04-03T19:26:13.591Z,100.00
2023-04-03T19:28:41.587Z,100.00
2023-04-03T19:31:16.683Z,100.00
2023-04-03T19:33:44.377Z,100.00
2023-04-03T19:36:11.963Z,100.00
2023-04-03T19:38:38.508Z,100.00
2023-04-03T19:41:17.356Z,100.00
2023-04-03T19:43:44.226Z,100.00
2023-04-03T19:46:11.088Z,100.00
2023-04-03T19:48:38.008Z,100.00
2023-04-03T19:51:05.998Z,100.00
2023-04-03T19:53:32.638Z,100.00
2023-04-03T19:55:59.242Z,100.00
2023-04-03T19:58:29.849Z,100.00
2023-04-03T20:00:58.051Z,100.00
2023-04-03T20:03:25.507Z,100.00
2023-04-03T20:05:52.685Z,100.00
2023-04-03T20:08:20.525Z,100.00
2023-04-03T20:10:47.126Z,100.00
2023-04-03T20:13:13.911Z,100.00
2023-04-03T20:15:42.403Z,100.00
2023-04-03T20:18:17.968Z,100.00
2023-04-03T20:20:52.537Z,100.00
2023-04-03T20:23:19.281Z,100.00
2023-04-03T20:25:57.530Z,100.00
2023-04-03T20:28:28.947Z,100.00
2023-04-03T20:30:55.715Z,100.00
2023-04-03T20:33:23.848Z,100.00
2023-04-03T20:35:50.637Z,100.00
2023-04-03T20:38:17.381Z,100.00
2023-04-03T20:40:44.093Z,100.00
2023-04-03T20:43:10.729Z,100.00
2023-04-03T20:45:37.404Z,100.00
2023-04-03T20:48:05.823Z,100.00
2023-04-03T20:50:34.171Z,100.00
2023-04-03T20:53:01.897Z,100.00
2023-04-03T20:55:28.428Z,100.00
2023-04-03T20:58:00.656Z,100.00
2023-04-03T21:00:28.859Z,100.00
2023-04-03T21:02:57.824Z,100.00
2023-04-03T21:05:26.355Z,100.00
2023-04-03T21:08:31.951Z,100.00
2023-04-03T21:11:36.402Z,100.00
2023-04-03T21:14:40.397Z,100.00
2023-04-03T21:17:06.754Z,100.00
2023-04-03T21:19:33.582Z,100.00
2023-04-03T21:22:00.948Z,100.00
2023-04-03T21:24:27.586Z,100.00
2023-04-03T21:26:57.831Z,100.00
2023-04-03T21:29:24.375Z,100.00
2023-04-03T21:31:58.054Z,100.00
2023-04-03T21:34:26.191Z,100.00
2023-04-03T21:36:55.362Z,100.00
2023-04-03T21:39:22.159Z,100.00
2023-04-03T21:41:52.393Z,100.00
2023-04-03T21:44:19.908Z,100.00
2023-04-03T21:46:47.996Z,100.00
2023-04-03T21:49:14.997Z,100.00
2023-04-03T21:51:41.926Z,100.00
2023-04-03T21:54:08.552Z,100.00
2023-04-03T21:56:35.018Z,100.00
2023-04-03T21:59:02.813Z,100.00
2023-04-03T22:01:30.485Z,100.00
2023-04-03T22:03:58.917Z,100.00
2023-04-03T22:06:26.567Z,100.00
2023-04-03T22:08:53.269Z,100.00
2023-04-03T22:11:22.975Z,100.00
2023-04-03T22:13:53.063Z,100.00
2023-04-03T22:16:42.390Z,100.00
2023-04-03T22:19:09.108Z,100.00
2023-04-03T22:21:36.373Z,100.00
2023-04-03T22:24:03.088Z,100.00
2023-04-03T22:26:29.532Z,100.00
2023-04-03T22:28:56.288Z,100.00
2023-04-03T22:31:22.959Z,100.00
2023-04-03T22:33:49.424Z,100.00
2023-04-03T22:36:16.036Z,100.00
2023-04-03T22:38:46.804Z,100.00
2023-04-03T22:41:13.405Z,100.00
2023-04-03T22:43:40.256Z,100.00
2023-04-03T22:46:09.064Z,100.00
2023-04-03T22:48:37.321Z,100.00
2023-04-03T22:51:09.903Z,100.00
2023-04-03T22:53:37.015Z,100.00
2023-04-03T22:56:08.321Z,100.00
2023-04-03T22:58:35.057Z,100.00
2023-04-03T23:01:07.577Z,100.00
2023-04-03T23:03:36.117Z,100.00
2023-04-03T23:06:04.022Z,100.00
2023-04-03T23:08:32.514Z,100.00
2023-04-03T23:10:59.338Z,100.00
2023-04-03T23:13:26.419Z,100.00
2023-04-03T23:16:00.978Z,100.00
2023-04-03T23:18:31.668Z,100.00
2023-04-03T23:21:03.917Z,100.00
2023-04-03T23:23:31.039Z,100.00
2023-04-03T23:26:00.332Z,100.00
2023-04-03T23:28:27.676Z,100.00
2023-04-03T23:31:00.278Z,100.00
2023-04-03T23:33:27.572Z,100.00
2023-04-03T23:35:54.184Z,100.00
2023-04-03T23:38:20.962Z,100.00
2023-04-03T23:40:48.186Z,100.00
2023-04-03T23:43:14.807Z,100.00
2023-04-03T23:45:41.898Z,100.00
2023-04-03T23:48:08.934Z,100.00
2023-04-03T23:50:35.422Z,100.00
2023-04-03T23:53:01.942Z,100.00
2023-04-03T23:55:28.435Z,100.00
2023-04-03T23:57:54.969Z,100.00
